sensor_id;sensor_type;location;lat;lon;timestamp;pressure;altitude;pressure_sealevel;temperature;humidity
76106;BME280;64832;45.274;5.880;2023-11-22T00:00:08;98825.34;;;21.61;51.46
76106;BME280;64832;45.274;5.880;2023-11-22T00:02:34;98823.69;;;21.60;51.41
76106;BME280;64832;45.274;5.880;2023-11-22T00:05:00;98820.72;;;21.61;51.53
76106;BME280;64832;45.274;5.880;2023-11-22T00:07:25;98820.97;;;21.60;51.34
76106;BME280;64832;45.274;5.880;2023-11-22T00:09:54;98829.13;;;21.60;51.54
76106;BME280;64832;45.274;5.880;2023-11-22T00:12:21;98838.13;;;21.60;51.60
76106;BME280;64832;45.274;5.880;2023-11-22T00:14:47;98830.78;;;21.61;51.54
76106;BME280;64832;45.274;5.880;2023-11-22T00:17:13;98831.06;;;21.59;51.69
76106;BME280;64832;45.274;5.880;2023-11-22T00:19:38;98834.59;;;21.60;51.70
76106;BME280;64832;45.274;5.880;2023-11-22T00:22:04;98841.94;;;21.59;51.85
76106;BME280;64832;45.274;5.880;2023-11-22T00:24:37;98848.16;;;21.55;51.96
76106;BME280;64832;45.274;5.880;2023-11-22T00:27:02;98841.88;;;21.54;51.98
76106;BME280;64832;45.274;5.880;2023-11-22T00:29:28;98846.53;;;21.54;52.18
76106;BME280;64832;45.274;5.880;2023-11-22T00:31:53;98842.41;;;21.51;52.13
76106;BME280;64832;45.274;5.880;2023-11-22T00:34:18;98842.41;;;21.51;52.08
76106;BME280;64832;45.274;5.880;2023-11-22T00:36:44;98840.22;;;21.48;52.17
76106;BME280;64832;45.274;5.880;2023-11-22T00:39:09;98840.78;;;21.50;52.21
76106;BME280;64832;45.274;5.880;2023-11-22T00:41:38;98834.69;;;21.43;52.24
76106;BME280;64832;45.274;5.880;2023-11-22T00:44:04;98833.13;;;21.47;52.21
76106;BME280;64832;45.274;5.880;2023-11-22T00:46:31;98812.38;;;21.41;52.22
76106;BME280;64832;45.274;5.880;2023-11-22T00:48:56;98827.91;;;21.46;52.34
76106;BME280;64832;45.274;5.880;2023-11-22T00:51:22;98832.28;;;21.47;52.34
76106;BME280;64832;45.274;5.880;2023-11-22T00:53:47;98833.63;;;21.44;52.37
76106;BME280;64832;45.274;5.880;2023-11-22T00:56:13;98827.34;;;21.44;52.51
76106;BME280;64832;45.274;5.880;2023-11-22T00:58:38;98825.97;;;21.41;52.36
76106;BME280;64832;45.274;5.880;2023-11-22T01:01:04;98827.34;;;21.44;52.38
76106;BME280;64832;45.274;5.880;2023-11-22T01:03:30;98825.66;;;21.38;52.56
76106;BME280;64832;45.274;5.880;2023-11-22T01:05:55;98827.88;;;21.41;52.75
76106;BME280;64832;45.274;5.880;2023-11-22T01:08:21;98833.31;;;21.41;52.67
76106;BME280;64832;45.274;5.880;2023-11-22T01:10:47;98835.78;;;21.42;52.74
76106;BME280;64832;45.274;5.880;2023-11-22T01:13:12;98832.50;;;21.40;52.58
76106;BME280;64832;45.274;5.880;2023-11-22T01:15:39;98836.31;;;21.39;52.83
76106;BME280;64832;45.274;5.880;2023-11-22T01:18:04;98832.22;;;21.37;52.93
76106;BME280;64832;45.274;5.880;2023-11-22T01:20:29;98836.53;;;21.38;52.80
76106;BME280;64832;45.274;5.880;2023-11-22T01:22:55;98834.59;;;21.33;52.79
76106;BME280;64832;45.274;5.880;2023-11-22T01:25:20;98846.06;;;21.35;52.93
76106;BME280;64832;45.274;5.880;2023-11-22T01:27:45;98841.72;;;21.34;52.98
76106;BME280;64832;45.274;5.880;2023-11-22T01:30:11;98847.16;;;21.34;53.01
76106;BME280;64832;45.274;5.880;2023-11-22T01:32:37;98845.50;;;21.33;53.00
76106;BME280;64832;45.274;5.880;2023-11-22T01:35:03;98855.31;;;21.34;53.01
76106;BME280;64832;45.274;5.880;2023-11-22T01:37:30;98855.31;;;21.34;53.26
76106;BME280;64832;45.274;5.880;2023-11-22T01:39:56;98862.09;;;21.32;53.19
76106;BME280;64832;45.274;5.880;2023-11-22T01:42:22;98866.44;;;21.33;53.44
76106;BME280;64832;45.274;5.880;2023-11-22T01:44:49;98868.31;;;21.32;53.37
76106;BME280;64832;45.274;5.880;2023-11-22T01:47:14;98865.31;;;21.29;53.46
76106;BME280;64832;45.274;5.880;2023-11-22T01:49:40;98869.44;;;21.31;53.60
76106;BME280;64832;45.274;5.880;2023-11-22T01:52:05;98869.44;;;21.31;53.79
76106;BME280;64832;45.274;5.880;2023-11-22T01:54:31;98864.22;;;21.30;53.90
76106;BME280;64832;45.274;5.880;2023-11-22T01:56:58;98868.31;;;21.32;54.11
76106;BME280;64832;45.274;5.880;2023-11-22T01:59:25;98866.19;;;21.34;54.16
76106;BME280;64832;45.274;5.880;2023-11-22T02:01:51;98868.09;;;21.34;54.03
76106;BME280;64832;45.274;5.880;2023-11-22T02:04:17;98862.88;;;21.32;54.30
76106;BME280;64832;45.274;5.880;2023-11-22T02:06:42;98863.97;;;21.31;54.21
76106;BME280;64832;45.274;5.880;2023-11-22T02:09:08;98855.19;;;21.24;54.21
76106;BME280;64832;45.274;5.880;2023-11-22T02:11:39;98864.72;;;21.27;54.08
76106;BME280;64832;45.274;5.880;2023-11-22T02:14:04;98863.09;;;21.26;54.22
76106;BME280;64832;45.274;5.880;2023-11-22T02:16:32;98866.06;;;21.24;54.21
76106;BME280;64832;45.274;5.880;2023-11-22T02:18:57;98855.66;;;21.16;54.17
76106;BME280;64832;45.274;5.880;2023-11-22T02:21:23;98867.41;;;21.22;54.30
76106;BME280;64832;45.274;5.880;2023-11-22T02:23:48;98864.41;;;21.18;54.28
76106;BME280;64832;45.274;5.880;2023-11-22T02:26:14;98864.13;;;21.20;54.25
76106;BME280;64832;45.274;5.880;2023-11-22T02:28:43;98868.75;;;21.19;54.21
76106;BME280;64832;45.274;5.880;2023-11-22T02:31:08;98871.47;;;21.19;54.31
76106;BME280;64832;45.274;5.880;2023-11-22T02:33:33;98869.25;;;21.16;54.21
76106;BME280;64832;45.274;5.880;2023-11-22T02:35:59;98865.97;;;21.14;54.41
76106;BME280;64832;45.274;5.880;2023-11-22T02:38:24;98863.50;;;21.13;54.33
76106;BME280;64832;45.274;5.880;2023-11-22T02:40:51;98870.34;;;21.15;54.39
76106;BME280;64832;45.274;5.880;2023-11-22T02:43:17;98862.19;;;21.15;54.44
76106;BME280;64832;45.274;5.880;2023-11-22T02:45:43;98871.41;;;21.14;54.51
76106;BME280;64832;45.274;5.880;2023-11-22T02:48:08;98865.41;;;21.12;54.59
76106;BME280;64832;45.274;5.880;2023-11-22T02:50:35;98864.59;;;21.12;54.61
76106;BME280;64832;45.274;5.880;2023-11-22T02:53:02;98866.47;;;21.11;54.57
76106;BME280;64832;45.274;5.880;2023-11-22T02:55:28;98865.13;;;21.14;54.62
76106;BME280;64832;45.274;5.880;2023-11-22T02:57:54;98871.09;;;21.11;54.64
76106;BME280;64832;45.274;5.880;2023-11-22T03:00:19;98860.13;;;21.05;54.69
76106;BME280;64832;45.274;5.880;2023-11-22T03:02:48;98867.53;;;21.10;54.66
76106;BME280;64832;45.274;5.880;2023-11-22T03:05:19;98865.66;;;21.11;54.74
76106;BME280;64832;45.274;5.880;2023-11-22T03:07:45;98867.53;;;21.10;54.95
76106;BME280;64832;45.274;5.880;2023-11-22T03:10:10;98862.63;;;21.07;54.90
76106;BME280;64832;45.274;5.880;2023-11-22T03:12:36;98865.09;;;21.08;55.07
76106;BME280;64832;45.274;5.880;2023-11-22T03:15:01;98872.41;;;21.08;55.23
76106;BME280;64832;45.274;5.880;2023-11-22T03:17:30;98860.94;;;21.06;54.94
76106;BME280;64832;45.274;5.880;2023-11-22T03:19:59;98862.63;;;21.07;55.13
76106;BME280;64832;45.274;5.880;2023-11-22T03:22:26;98851.91;;;21.00;54.99
76106;BME280;64832;45.274;5.880;2023-11-22T03:24:55;98863.91;;;21.04;54.98
76106;BME280;64832;45.274;5.880;2023-11-22T03:27:21;98859.56;;;21.03;55.05
76106;BME280;64832;45.274;5.880;2023-11-22T03:29:48;98868.56;;;21.04;54.93
76106;BME280;64832;45.274;5.880;2023-11-22T03:32:13;98874.00;;;21.04;55.00
76106;BME280;64832;45.274;5.880;2023-11-22T03:34:39;98863.63;;;21.01;55.19
76106;BME280;64832;45.274;5.880;2023-11-22T03:37:04;98865.50;;;21.00;54.99
76106;BME280;64832;45.274;5.880;2023-11-22T03:39:30;98859.50;;;20.98;55.15
76106;BME280;64832;45.274;5.880;2023-11-22T03:41:55;98856.19;;;20.96;55.18
76106;BME280;64832;45.274;5.880;2023-11-22T03:44:20;98855.09;;;20.92;55.08
76106;BME280;64832;45.274;5.880;2023-11-22T03:46:46;98857.03;;;20.97;55.04
76106;BME280;64832;45.274;5.880;2023-11-22T03:49:11;98863.56;;;20.96;54.94
76106;BME280;64832;45.274;5.880;2023-11-22T03:51:38;98873.63;;;20.95;54.99
76106;BME280;64832;45.274;5.880;2023-11-22T03:54:04;98869.78;;;20.96;55.10
76106;BME280;64832;45.274;5.880;2023-11-22T03:56:30;98867.34;;;20.95;54.99
76106;BME280;64832;45.274;5.880;2023-11-22T03:58:56;98867.34;;;20.95;55.28
76106;BME280;64832;45.274;5.880;2023-11-22T04:01:21;98871.44;;;20.97;55.60
76106;BME280;64832;45.274;5.880;2023-11-22T04:03:47;98872.28;;;20.98;55.46
76106;BME280;64832;45.274;5.880;2023-11-22T04:06:17;98871.19;;;20.99;55.47
76106;BME280;64832;45.274;5.880;2023-11-22T04:08:43;98869.78;;;20.96;55.54
76106;BME280;64832;45.274;5.880;2023-11-22T04:11:09;98876.34;;;20.95;55.46
76106;BME280;64832;45.274;5.880;2023-11-22T04:13:35;98876.56;;;20.94;55.59
76106;BME280;64832;45.274;5.880;2023-11-22T04:16:01;98871.13;;;20.94;55.50
76106;BME280;64832;45.274;5.880;2023-11-22T04:18:26;98881.44;;;20.92;55.63
76106;BME280;64832;45.274;5.880;2023-11-22T04:20:52;98878.16;;;20.90;55.68
76106;BME280;64832;45.274;5.880;2023-11-22T04:23:17;98886.88;;;20.92;55.50
76106;BME280;64832;45.274;5.880;2023-11-22T04:25:43;98876.50;;;20.89;55.56
76106;BME280;64832;45.274;5.880;2023-11-22T04:28:08;98890.94;;;20.89;55.65
76106;BME280;64832;45.274;5.880;2023-11-22T04:30:35;98884.09;;;20.87;55.71
76106;BME280;64832;45.274;5.880;2023-11-22T04:33:00;98881.88;;;20.84;55.63
76106;BME280;64832;45.274;5.880;2023-11-22T04:35:26;98890.09;;;20.89;55.68
76106;BME280;64832;45.274;5.880;2023-11-22T04:37:52;98883.00;;;20.88;55.74
76106;BME280;64832;45.274;5.880;2023-11-22T04:40:18;98891.69;;;20.85;55.60
76106;BME280;64832;45.274;5.880;2023-11-22T04:42:43;98894.44;;;20.85;55.75
76106;BME280;64832;45.274;5.880;2023-11-22T04:45:09;98893.28;;;20.81;55.97
76106;BME280;64832;45.274;5.880;2023-11-22T04:47:35;98897.94;;;20.85;55.99
76106;BME280;64832;45.274;5.880;2023-11-22T04:50:00;98903.38;;;20.85;55.96
76106;BME280;64832;45.274;5.880;2023-11-22T04:52:26;98901.75;;;20.84;56.19
76106;BME280;64832;45.274;5.880;2023-11-22T04:54:51;98909.63;;;20.86;56.29
76106;BME280;64832;45.274;5.880;2023-11-22T04:57:16;98903.13;;;20.87;56.18
76106;BME280;64832;45.274;5.880;2023-11-22T04:59:42;98917.81;;;20.86;56.35
76106;BME280;64832;45.274;5.880;2023-11-22T05:02:07;98916.97;;;20.85;56.08
76106;BME280;64832;45.274;5.880;2023-11-22T05:04:33;98912.38;;;20.86;56.55
76106;BME280;64832;45.274;5.880;2023-11-22T05:06:58;98906.09;;;20.85;56.32
76106;BME280;64832;45.274;5.880;2023-11-22T05:09:24;98905.31;;;20.85;56.55
76106;BME280;64832;45.274;5.880;2023-11-22T05:11:49;98909.91;;;20.84;56.65
76106;BME280;64832;45.274;5.880;2023-11-22T05:14:15;98911.81;;;20.84;56.57
76106;BME280;64832;45.274;5.880;2023-11-22T05:16:40;98901.69;;;20.79;56.46
76106;BME280;64832;45.274;5.880;2023-11-22T05:19:06;98907.41;;;20.83;56.61
76106;BME280;64832;45.274;5.880;2023-11-22T05:21:31;98906.59;;;20.82;56.68
76106;BME280;64832;45.274;5.880;2023-11-22T05:23:57;98909.31;;;20.82;56.81
76106;BME280;64832;45.274;5.880;2023-11-22T05:26:23;98908.53;;;20.82;56.65
76106;BME280;64832;45.274;5.880;2023-11-22T05:28:48;98916.69;;;20.82;56.66
76106;BME280;64832;45.274;5.880;2023-11-22T05:31:14;98917.75;;;20.81;56.74
76106;BME280;64832;45.274;5.880;2023-11-22T05:33:40;98924.84;;;20.82;56.85
76106;BME280;64832;45.274;5.880;2023-11-22T05:36:06;98929.69;;;20.80;56.77
76106;BME280;64832;45.274;5.880;2023-11-22T05:38:32;98938.94;;;20.79;56.72
76106;BME280;64832;45.274;5.880;2023-11-22T05:41:01;98944.34;;;20.79;57.05
76106;BME280;64832;45.274;5.880;2023-11-22T05:43:26;98945.44;;;20.78;56.72
76106;BME280;64832;45.274;5.880;2023-11-22T05:45:55;98953.59;;;20.78;57.06
76106;BME280;64832;45.274;5.880;2023-11-22T05:48:21;98954.41;;;20.78;56.93
76106;BME280;64832;45.274;5.880;2023-11-22T05:50:47;98957.97;;;20.79;56.94
76106;BME280;64832;45.274;5.880;2023-11-22T05:53:13;98970.72;;;20.78;57.07
76106;BME280;64832;45.274;5.880;2023-11-22T05:55:49;98960.91;;;20.77;57.15
76106;BME280;64832;45.274;5.880;2023-11-22T05:58:15;98961.16;;;20.76;57.23
76106;BME280;64832;45.274;5.880;2023-11-22T06:00:44;98962.00;;;20.76;57.18
76106;BME280;64832;45.274;5.880;2023-11-22T06:03:11;98965.50;;;20.77;57.26
76106;BME280;64832;45.274;5.880;2023-11-22T06:05:36;98979.94;;;20.77;57.28
76106;BME280;64832;45.274;5.880;2023-11-22T06:08:02;98965.78;;;20.75;57.25
76106;BME280;64832;45.274;5.880;2023-11-22T06:10:27;98970.94;;;20.77;57.01
76106;BME280;64832;45.274;5.880;2023-11-22T06:12:53;98976.09;;;20.73;57.22
76106;BME280;64832;45.274;5.880;2023-11-22T06:15:18;98977.72;;;20.74;57.21
76106;BME280;64832;45.274;5.880;2023-11-22T06:17:46;98976.66;;;20.75;57.25
76106;BME280;64832;45.274;5.880;2023-11-22T06:20:12;98991.56;;;20.73;57.06
76106;BME280;64832;45.274;5.880;2023-11-22T06:22:38;98999.47;;;20.74;56.98
76106;BME280;64832;45.274;5.880;2023-11-22T06:25:08;98995.34;;;20.72;57.11
76106;BME280;64832;45.274;5.880;2023-11-22T06:27:33;99001.88;;;20.71;56.88
76106;BME280;64832;45.274;5.880;2023-11-22T06:29:58;99001.88;;;20.71;57.01
76106;BME280;64832;45.274;5.880;2023-11-22T06:32:24;99010.53;;;20.68;57.05
76106;BME280;64832;45.274;5.880;2023-11-22T06:34:49;99015.69;;;20.69;56.94
76106;BME280;64832;45.274;5.880;2023-11-22T06:37:15;99005.31;;;20.66;56.95
76106;BME280;64832;45.274;5.880;2023-11-22T06:39:41;99004.25;;;20.67;57.20
76106;BME280;64832;45.274;5.880;2023-11-22T06:42:06;99008.03;;;20.66;52.97
76106;BME280;64832;45.274;5.880;2023-11-22T06:44:31;99019.94;;;20.43;48.26
76106;BME280;64832;45.274;5.880;2023-11-22T06:46:57;99015.66;;;20.19;47.03
76106;BME280;64832;45.274;5.880;2023-11-22T06:49:22;99025.00;;;19.95;46.66
76106;BME280;64832;45.274;5.880;2023-11-22T06:51:48;99010.91;;;19.81;48.06
76106;BME280;64832;45.274;5.880;2023-11-22T06:54:13;99009.69;;;19.89;50.21
76106;BME280;64832;45.274;5.880;2023-11-22T06:56:38;99013.09;;;19.96;50.45
76106;BME280;64832;45.274;5.880;2023-11-22T06:59:04;99020.84;;;20.04;50.54
76106;BME280;64832;45.274;5.880;2023-11-22T07:01:29;99010.06;;;20.09;50.46
76106;BME280;64832;45.274;5.880;2023-11-22T07:03:55;99012.28;;;20.12;50.57
76106;BME280;64832;45.274;5.880;2023-11-22T07:06:20;99016.41;;;20.15;50.69
76106;BME280;64832;45.274;5.880;2023-11-22T07:08:48;99020.28;;;20.19;50.47
76106;BME280;64832;45.274;5.880;2023-11-22T07:11:21;99027.69;;;20.23;50.58
76106;BME280;64832;45.274;5.880;2023-11-22T07:13:48;99020.59;;;20.22;50.40
76106;BME280;64832;45.274;5.880;2023-11-22T07:16:13;99038.13;;;20.26;50.49
76106;BME280;64832;45.274;5.880;2023-11-22T07:18:40;99030.66;;;20.22;50.40
76106;BME280;64832;45.274;5.880;2023-11-22T07:21:05;99033.13;;;20.23;50.44
76106;BME280;64832;45.274;5.880;2023-11-22T07:23:31;99034.31;;;20.27;50.39
76106;BME280;64832;45.274;5.880;2023-11-22T07:25:56;99034.31;;;20.27;50.52
76106;BME280;64832;45.274;5.880;2023-11-22T07:28:21;99027.47;;;20.25;50.45
76106;BME280;64832;45.274;5.880;2023-11-22T07:30:47;99026.41;;;20.26;50.26
76106;BME280;64832;45.274;5.880;2023-11-22T07:33:14;99027.81;;;20.28;50.34
76106;BME280;64832;45.274;5.880;2023-11-22T07:35:40;99026.41;;;20.26;50.33
76106;BME280;64832;45.274;5.880;2023-11-22T07:38:06;99042.22;;;20.29;50.54
76106;BME280;64832;45.274;5.880;2023-11-22T07:40:33;99040.56;;;20.28;50.51
76106;BME280;64832;45.274;5.880;2023-11-22T07:42:59;99048.72;;;20.28;50.16
76106;BME280;64832;45.274;5.880;2023-11-22T07:45:25;99047.88;;;20.27;50.78
76106;BME280;64832;45.274;5.880;2023-11-22T07:47:50;99055.53;;;20.30;50.70
76106;BME280;64832;45.274;5.880;2023-11-22T07:50:18;99061.25;;;20.29;50.32
76106;BME280;64832;45.274;5.880;2023-11-22T07:52:45;99065.00;;;20.28;50.69
76106;BME280;64832;45.274;5.880;2023-11-22T07:55:10;99063.97;;;20.29;50.69
76106;BME280;64832;45.274;5.880;2023-11-22T07:57:37;99065.59;;;20.30;50.67
76106;BME280;64832;45.274;5.880;2023-11-22T08:00:04;99067.72;;;20.28;50.68
76106;BME280;64832;45.274;5.880;2023-11-22T08:02:34;99069.97;;;20.31;50.68
76106;BME280;64832;45.274;5.880;2023-11-22T08:04:59;99071.03;;;20.30;50.67
76106;BME280;64832;45.274;5.880;2023-11-22T08:07:27;99071.28;;;20.28;50.64
76106;BME280;64832;45.274;5.880;2023-11-22T08:09:53;99070.22;;;20.29;50.45
76106;BME280;64832;45.274;5.880;2023-11-22T08:12:18;99073.72;;;20.30;50.60
76106;BME280;64832;45.274;5.880;2023-11-22T08:14:44;99068.81;;;20.27;50.46
76106;BME280;64832;45.274;5.880;2023-11-22T08:17:09;99080.25;;;20.29;50.46
76106;BME280;64832;45.274;5.880;2023-11-22T08:19:39;99079.09;;;20.25;50.59
76106;BME280;64832;45.274;5.880;2023-11-22T08:22:05;99075.53;;;20.24;50.29
76106;BME280;64832;45.274;5.880;2023-11-22T08:24:31;99071.53;;;20.27;50.69
76106;BME280;64832;45.274;5.880;2023-11-22T08:26:57;99055.56;;;20.19;50.36
76106;BME280;64832;45.274;5.880;2023-11-22T08:29:23;99075.88;;;20.28;50.48
76106;BME280;64832;45.274;5.880;2023-11-22T08:31:49;99073.44;;;20.26;50.58
76106;BME280;64832;45.274;5.880;2023-11-22T08:34:16;99079.09;;;20.25;50.29
76106;BME280;64832;45.274;5.880;2023-11-22T08:36:42;99080.13;;;20.24;50.15
76106;BME280;64832;45.274;5.880;2023-11-22T08:39:08;99076.38;;;20.25;50.18
76106;BME280;64832;45.274;5.880;2023-11-22T08:41:33;99079.69;;;20.27;50.36
76106;BME280;64832;45.274;5.880;2023-11-22T08:43:59;99081.81;;;20.25;50.22
76106;BME280;64832;45.274;5.880;2023-11-22T08:46:25;99078.47;;;20.23;50.07
76106;BME280;64832;45.274;5.880;2023-11-22T08:48:51;99090.19;;;20.23;50.10
76106;BME280;64832;45.274;5.880;2023-11-22T08:51:17;99090.41;;;20.22;50.09
76106;BME280;64832;45.274;5.880;2023-11-22T08:53:43;99096.44;;;20.24;50.09
76106;BME280;64832;45.274;5.880;2023-11-22T08:56:11;99090.66;;;20.20;50.18
76106;BME280;64832;45.274;5.880;2023-11-22T08:58:38;99091.22;;;20.22;50.17
76106;BME280;64832;45.274;5.880;2023-11-22T09:01:05;99085.81;;;20.22;49.99
76106;BME280;64832;45.274;5.880;2023-11-22T09:03:31;99085.44;;;20.19;49.97
76106;BME280;64832;45.274;5.880;2023-11-22T09:05:57;99094.78;;;20.23;49.88
76106;BME280;64832;45.274;5.880;2023-11-22T09:08:23;99099.38;;;20.22;49.88
76106;BME280;64832;45.274;5.880;2023-11-22T09:10:48;99100.22;;;20.23;49.84
76106;BME280;64832;45.274;5.880;2023-11-22T09:13:13;99099.16;;;20.24;50.00
76106;BME280;64832;45.274;5.880;2023-11-22T09:15:42;99100.81;;;20.25;49.77
76106;BME280;64832;45.274;5.880;2023-11-22T09:18:09;99110.13;;;20.29;49.73
76106;BME280;64832;45.274;5.880;2023-11-22T09:20:35;99104.72;;;20.29;49.71
76106;BME280;64832;45.274;5.880;2023-11-22T09:23:00;99098.56;;;20.22;46.11
76106;BME280;64832;45.274;5.880;2023-11-22T09:25:26;99106.06;;;20.03;44.82
76106;BME280;64832;45.274;5.880;2023-11-22T09:27:57;99095.88;;;19.82;44.05
76106;BME280;64832;45.274;5.880;2023-11-22T09:30:28;99087.78;;;19.70;44.10
76106;BME280;64832;45.274;5.880;2023-11-22T09:33:04;99102.84;;;19.78;47.88
76106;BME280;64832;45.274;5.880;2023-11-22T09:35:30;99099.19;;;19.84;49.00
76106;BME280;64832;45.274;5.880;2023-11-22T09:37:57;99101.03;;;19.95;48.95
76106;BME280;64832;45.274;5.880;2023-11-22T09:40:23;99110.19;;;20.06;48.85
76106;BME280;64832;45.274;5.880;2023-11-22T09:42:49;99099.44;;;20.11;48.72
76106;BME280;64832;45.274;5.880;2023-11-22T09:45:17;99103.41;;;20.20;48.59
76106;BME280;64832;45.274;5.880;2023-11-22T09:47:46;99111.44;;;20.26;48.63
76106;BME280;64832;45.274;5.880;2023-11-22T09:50:18;99094.41;;;20.31;48.90
76106;BME280;64832;45.274;5.880;2023-11-22T09:52:46;99106.19;;;20.36;49.11
76106;BME280;64832;45.274;5.880;2023-11-22T09:55:15;99077.97;;;20.37;49.35
76106;BME280;64832;45.274;5.880;2023-11-22T09:57:40;99082.09;;;20.57;49.48
76106;BME280;64832;45.274;5.880;2023-11-22T10:00:09;99086.06;;;20.66;49.29
76106;BME280;64832;45.274;5.880;2023-11-22T10:02:40;99065.88;;;20.62;49.41
76106;BME280;64832;45.274;5.880;2023-11-22T10:05:06;99078.00;;;20.71;49.51
76106;BME280;64832;45.274;5.880;2023-11-22T10:07:32;99076.41;;;20.75;49.71
76106;BME280;64832;45.274;5.880;2023-11-22T10:09:57;99076.41;;;20.75;50.31
76106;BME280;64832;45.274;5.880;2023-11-22T10:12:29;99092.00;;;20.79;52.22
76106;BME280;64832;45.274;5.880;2023-11-22T10:14:55;99074.78;;;20.74;52.76
76106;BME280;64832;45.274;5.880;2023-11-22T10:17:22;99079.53;;;20.83;52.42
76106;BME280;64832;45.274;5.880;2023-11-22T10:19:47;99067.75;;;20.78;52.09
76106;BME280;64832;45.274;5.880;2023-11-22T10:22:12;99066.78;;;20.84;52.63
76106;BME280;64832;45.274;5.880;2023-11-22T10:24:43;99075.34;;;20.92;52.69
76106;BME280;64832;45.274;5.880;2023-11-22T10:27:10;99072.97;;;20.96;52.52
76106;BME280;64832;45.274;5.880;2023-11-22T10:29:35;99071.38;;;21.00;52.41
76106;BME280;64832;45.274;5.880;2023-11-22T10:32:03;99076.66;;;21.06;52.24
76106;BME280;64832;45.274;5.880;2023-11-22T10:34:29;99074.25;;;21.10;52.15
76106;BME280;64832;45.274;5.880;2023-11-22T10:36:55;99076.50;;;21.13;51.41
76106;BME280;64832;45.274;5.880;2023-11-22T10:39:21;99064.28;;;21.16;51.26
76106;BME280;64832;45.274;5.880;2023-11-22T10:41:47;99074.16;;;21.22;50.77
76106;BME280;64832;45.274;5.880;2023-11-22T10:44:12;99070.06;;;21.19;50.59
76106;BME280;64832;45.274;5.880;2023-11-22T10:46:40;99075.31;;;21.26;50.83
76106;BME280;64832;45.274;5.880;2023-11-22T10:49:06;99067.47;;;21.29;50.83
76106;BME280;64832;45.274;5.880;2023-11-22T10:51:32;99071.06;;;21.35;50.70
76106;BME280;64832;45.274;5.880;2023-11-22T10:53:59;99057.22;;;21.36;50.58
76106;BME280;64832;45.274;5.880;2023-11-22T10:56:36;99061.09;;;21.40;50.63
76106;BME280;64832;45.274;5.880;2023-11-22T10:59:05;99051.84;;;21.41;50.33
76106;BME280;64832;45.274;5.880;2023-11-22T11:01:33;99059.25;;;21.46;50.47
76106;BME280;64832;45.274;5.880;2023-11-22T11:04:09;99048.97;;;21.48;50.48
76106;BME280;64832;45.274;5.880;2023-11-22T11:06:37;99048.75;;;21.54;50.24
76106;BME280;64832;45.274;5.880;2023-11-22T11:09:06;99047.41;;;21.57;50.32
76106;BME280;64832;45.274;5.880;2023-11-22T11:11:37;99047.41;;;21.57;50.26
76106;BME280;64832;45.274;5.880;2023-11-22T11:14:05;99044.78;;;21.62;50.10
76106;BME280;64832;45.274;5.880;2023-11-22T11:16:33;99054.56;;;21.63;50.46
76106;BME280;64832;45.274;5.880;2023-11-22T11:19:03;99056.47;;;21.62;50.98
76106;BME280;64832;45.274;5.880;2023-11-22T11:21:30;99057.63;;;21.66;51.50
76106;BME280;64832;45.274;5.880;2023-11-22T11:23:55;99054.63;;;21.68;52.10
76106;BME280;64832;45.274;5.880;2023-11-22T11:26:27;99049.78;;;21.70;52.06
76106;BME280;64832;45.274;5.880;2023-11-22T11:28:52;99036.34;;;21.63;52.55
76106;BME280;64832;45.274;5.880;2023-11-22T11:31:22;99051.16;;;21.73;53.21
76106;BME280;64832;45.274;5.880;2023-11-22T11:36:24;99063.34;;;21.87;54.49
76106;BME280;64832;45.274;5.880;2023-11-22T11:38:54;99058.19;;;21.90;54.87
76106;BME280;64832;45.274;5.880;2023-11-22T11:41:25;99042.44;;;21.92;55.44
76106;BME280;64832;45.274;5.880;2023-11-22T11:43:52;99049.63;;;22.03;55.69
76106;BME280;64832;45.274;5.880;2023-11-22T11:46:17;99058.41;;;22.10;55.85
76106;BME280;64832;45.274;5.880;2023-11-22T11:48:51;99048.91;;;22.13;55.96
76106;BME280;64832;45.274;5.880;2023-11-22T11:51:27;99047.59;;;22.20;56.28
76106;BME280;64832;45.274;5.880;2023-11-22T11:53:55;99037.84;;;22.24;56.48
76106;BME280;64832;45.274;5.880;2023-11-22T11:56:21;99035.44;;;22.28;55.85
76106;BME280;64832;45.274;5.880;2023-11-22T11:58:48;99035.41;;;22.23;55.18
76106;BME280;64832;45.274;5.880;2023-11-22T12:01:15;99036.72;;;22.20;55.28
76106;BME280;64832;45.274;5.880;2023-11-22T12:03:45;99034.84;;;22.26;55.66
76106;BME280;64832;45.274;5.880;2023-11-22T12:06:17;99041.16;;;22.32;55.60
76106;BME280;64832;45.274;5.880;2023-11-22T12:08:43;99058.41;;;22.37;55.57
76106;BME280;64832;45.274;5.880;2023-11-22T12:11:09;99045.41;;;22.44;55.92
76106;BME280;64832;45.274;5.880;2023-11-22T12:13:36;99051.75;;;22.55;56.25
76106;BME280;64832;45.274;5.880;2023-11-22T12:16:08;99049.34;;;22.58;56.88
76106;BME280;64832;45.274;5.880;2023-11-22T12:18:47;99060.31;;;22.63;57.01
76106;BME280;64832;45.274;5.880;2023-11-22T12:21:17;99050.78;;;22.66;57.30
76106;BME280;64832;45.274;5.880;2023-11-22T12:23:44;99055.19;;;22.72;57.35
76106;BME280;64832;45.274;5.880;2023-11-22T12:26:17;99053.53;;;22.71;56.24
76106;BME280;64832;45.274;5.880;2023-11-22T12:28:49;99060.34;;;22.68;56.00
76106;BME280;64832;45.274;5.880;2023-11-22T12:31:15;99068.69;;;22.62;55.96
76106;BME280;64832;45.274;5.880;2023-11-22T12:33:42;99071.97;;;22.59;55.94
76106;BME280;64832;45.274;5.880;2023-11-22T12:36:08;99070.84;;;22.55;56.04
76106;BME280;64832;45.274;5.880;2023-11-22T12:38:41;99081.47;;;22.56;56.06
76106;BME280;64832;45.274;5.880;2023-11-22T12:41:07;99079.28;;;22.53;56.15
76106;BME280;64832;45.274;5.880;2023-11-22T12:43:33;99084.19;;;22.56;56.28
76106;BME280;64832;45.274;5.880;2023-11-22T12:46:06;99082.25;;;22.52;56.05
76106;BME280;64832;45.274;5.880;2023-11-22T12:48:41;99079.81;;;22.50;56.23
76106;BME280;64832;45.274;5.880;2023-11-22T12:51:17;99071.91;;;22.54;56.16
76106;BME280;64832;45.274;5.880;2023-11-22T12:53:45;99075.22;;;22.56;56.05
76106;BME280;64832;45.274;5.880;2023-11-22T12:56:11;99075.22;;;22.56;56.03
76106;BME280;64832;45.274;5.880;2023-11-22T12:58:37;99074.94;;;22.57;54.84